sensor_id;sensor_type;location;lat;lon;timestamp;P1;durP1;ratioP1;P2;durP2;ratioP2
9821;SDS011;4950;46.042;14.472;2022-10-03T00:02:38;4.13;;;3.30;;
9821;SDS011;4950;46.042;14.472;2022-10-03T00:05:26;5.43;;;3.00;;
9821;SDS011;4950;46.042;14.472;2022-10-03T00:08:14;5.03;;;3.33;;
9821;SDS011;4950;46.042;14.472;2022-10-03T00:10:55;4.33;;;3.43;;
9821;SDS011;4950;46.042;14.472;2022-10-03T00:13:31;4.73;;;3.00;;
9821;SDS011;4950;46.042;14.472;2022-10-03T00:16:08;3.70;;;2.83;;
9821;SDS011;4950;46.042;14.472;2022-10-03T00:18:44;5.37;;;2.90;;
9821;SDS011;4950;46.042;14.472;2022-10-03T00:21:28;9.17;;;3.90;;
9821;SDS011;4950;46.042;14.472;2022-10-03T00:24:06;5.43;;;3.57;;
9821;SDS011;4950;46.042;14.472;2022-10-03T00:26:45;4.77;;;3.30;;
9821;SDS011;4950;46.042;14.472;2022-10-03T00:29:19;5.33;;;3.60;;
9821;SDS011;4950;46.042;14.472;2022-10-03T00:32:03;3.87;;;3.40;;
9821;SDS011;4950;46.042;14.472;2022-10-03T00:34:44;4.30;;;3.10;;
9821;SDS011;4950;46.042;14.472;2022-10-03T00:37:32;5.17;;;2.90;;
9821;SDS011;4950;46.042;14.472;2022-10-03T00:40:12;5.70;;;3.10;;
9821;SDS011;4950;46.042;14.472;2022-10-03T00:43:12;4.47;;;2.80;;
9821;SDS011;4950;46.042;14.472;2022-10-03T00:51:44;5.00;;;2.47;;
9821;SDS011;4950;46.042;14.472;2022-10-03T00:54:27;5.80;;;2.63;;
9821;SDS011;4950;46.042;14.472;2022-10-03T00:57:14;4.50;;;2.80;;
9821;SDS011;4950;46.042;14.472;2022-10-03T01:00:03;3.33;;;2.83;;
9821;SDS011;4950;46.042;14.472;2022-10-03T01:02:53;4.30;;;2.90;;
9821;SDS011;4950;46.042;14.472;2022-10-03T01:05:35;2.80;;;2.57;;
9821;SDS011;4950;46.042;14.472;2022-10-03T01:08:32;4.23;;;2.67;;
9821;SDS011;4950;46.042;14.472;2022-10-03T01:11:11;4.17;;;2.37;;
9821;SDS011;4950;46.042;14.472;2022-10-03T01:13:53;4.67;;;3.20;;
9821;SDS011;4950;46.042;14.472;2022-10-03T01:16:32;4.53;;;2.70;;
9821;SDS011;4950;46.042;14.472;2022-10-03T01:19:08;6.13;;;3.17;;
9821;SDS011;4950;46.042;14.472;2022-10-03T01:21:56;3.20;;;2.87;;
9821;SDS011;4950;46.042;14.472;2022-10-03T01:24:44;4.80;;;2.80;;
9821;SDS011;4950;46.042;14.472;2022-10-03T01:27:22;4.77;;;2.93;;
9821;SDS011;4950;46.042;14.472;2022-10-03T01:29:58;3.60;;;2.80;;
9821;SDS011;4950;46.042;14.472;2022-10-03T01:32:46;4.70;;;2.93;;
9821;SDS011;4950;46.042;14.472;2022-10-03T01:35:23;3.37;;;3.03;;
9821;SDS011;4950;46.042;14.472;2022-10-03T01:38:02;5.87;;;3.10;;
9821;SDS011;4950;46.042;14.472;2022-10-03T01:40:34;3.83;;;3.43;;
9821;SDS011;4950;46.042;14.472;2022-10-03T01:43:07;4.43;;;3.10;;
9821;SDS011;4950;46.042;14.472;2022-10-03T01:48:34;5.80;;;3.70;;
9821;SDS011;4950;46.042;14.472;2022-10-03T01:51:08;6.20;;;3.77;;
9821;SDS011;4950;46.042;14.472;2022-10-03T01:53:45;6.30;;;3.70;;
9821;SDS011;4950;46.042;14.472;2022-10-03T01:56:23;5.90;;;3.70;;
9821;SDS011;4950;46.042;14.472;2022-10-03T01:58:59;7.10;;;4.17;;
9821;SDS011;4950;46.042;14.472;2022-10-03T02:01:35;6.00;;;3.60;;
9821;SDS011;4950;46.042;14.472;2022-10-03T02:04:14;4.40;;;3.80;;
9821;SDS011;4950;46.042;14.472;2022-10-03T02:06:50;7.57;;;4.40;;
9821;SDS011;4950;46.042;14.472;2022-10-03T02:09:26;4.53;;;3.87;;
9821;SDS011;4950;46.042;14.472;2022-10-03T02:12:07;6.73;;;4.53;;
9821;SDS011;4950;46.042;14.472;2022-10-03T02:14:41;6.10;;;4.07;;
9821;SDS011;4950;46.042;14.472;2022-10-03T02:17:21;8.00;;;4.50;;
9821;SDS011;4950;46.042;14.472;2022-10-03T02:19:56;6.07;;;4.40;;
9821;SDS011;4950;46.042;14.472;2022-10-03T02:22:32;6.20;;;4.00;;
9821;SDS011;4950;46.042;14.472;2022-10-03T02:28:13;4.27;;;3.77;;
9821;SDS011;4950;46.042;14.472;2022-10-03T02:31:05;8.93;;;3.73;;
9821;SDS011;4950;46.042;14.472;2022-10-03T02:40:26;5.63;;;3.83;;
9821;SDS011;4950;46.042;14.472;2022-10-03T02:43:17;6.37;;;3.80;;
9821;SDS011;4950;46.042;14.472;2022-10-03T02:46:13;3.70;;;3.20;;
9821;SDS011;4950;46.042;14.472;2022-10-03T02:49:07;5.83;;;3.40;;
9821;SDS011;4950;46.042;14.472;2022-10-03T02:54:55;4.10;;;3.40;;
9821;SDS011;4950;46.042;14.472;2022-10-03T02:57:47;4.87;;;3.50;;
9821;SDS011;4950;46.042;14.472;2022-10-03T03:00:54;4.53;;;3.60;;
9821;SDS011;4950;46.042;14.472;2022-10-03T03:06:47;5.30;;;3.90;;
9821;SDS011;4950;46.042;14.472;2022-10-03T03:09:35;5.43;;;3.63;;
9821;SDS011;4950;46.042;14.472;2022-10-03T03:12:23;4.70;;;3.80;;
9821;SDS011;4950;46.042;14.472;2022-10-03T03:18:12;6.30;;;4.03;;
9821;SDS011;4950;46.042;14.472;2022-10-03T03:20:53;5.57;;;4.10;;
9821;SDS011;4950;46.042;14.472;2022-10-03T03:23:33;3.73;;;3.27;;
9821;SDS011;4950;46.042;14.472;2022-10-03T03:26:14;7.77;;;4.00;;
9821;SDS011;4950;46.042;14.472;2022-10-03T03:29:00;6.47;;;3.70;;
9821;SDS011;4950;46.042;14.472;2022-10-03T03:31:38;7.03;;;3.73;;
9821;SDS011;4950;46.042;14.472;2022-10-03T03:34:14;4.30;;;3.40;;
9821;SDS011;4950;46.042;14.472;2022-10-03T03:36:49;6.97;;;3.83;;
9821;SDS011;4950;46.042;14.472;2022-10-03T03:39:23;4.20;;;3.20;;
9821;SDS011;4950;46.042;14.472;2022-10-03T03:42:09;4.83;;;3.33;;
9821;SDS011;4950;46.042;14.472;2022-10-03T03:44:57;7.07;;;3.50;;
9821;SDS011;4950;46.042;14.472;2022-10-03T03:47:45;4.50;;;3.37;;
9821;SDS011;4950;46.042;14.472;2022-10-03T03:50:29;4.50;;;3.43;;
9821;SDS011;4950;46.042;14.472;2022-10-03T03:53:15;5.37;;;3.40;;
9821;SDS011;4950;46.042;14.472;2022-10-03T03:56:07;4.80;;;3.40;;
9821;SDS011;4950;46.042;14.472;2022-10-03T03:58:52;4.23;;;3.57;;
9821;SDS011;4950;46.042;14.472;2022-10-03T04:01:38;4.20;;;3.10;;
9821;SDS011;4950;46.042;14.472;2022-10-03T04:04:25;6.83;;;3.77;;
9821;SDS011;4950;46.042;14.472;2022-10-03T04:07:03;6.83;;;3.63;;
9821;SDS011;4950;46.042;14.472;2022-10-03T04:09:53;3.90;;;3.47;;
9821;SDS011;4950;46.042;14.472;2022-10-03T04:12:35;5.13;;;3.10;;
9821;SDS011;4950;46.042;14.472;2022-10-03T04:15:31;6.40;;;4.23;;
9821;SDS011;4950;46.042;14.472;2022-10-03T04:21:31;5.00;;;3.50;;
9821;SDS011;4950;46.042;14.472;2022-10-03T04:24:18;5.70;;;4.57;;
9821;SDS011;4950;46.042;14.472;2022-10-03T04:27:03;6.03;;;4.50;;
9821;SDS011;4950;46.042;14.472;2022-10-03T04:29:43;4.93;;;4.40;;
9821;SDS011;4950;46.042;14.472;2022-10-03T04:35:23;8.40;;;6.20;;
9821;SDS011;4950;46.042;14.472;2022-10-03T04:38:08;6.57;;;5.70;;
9821;SDS011;4950;46.042;14.472;2022-10-03T04:40:42;8.50;;;6.43;;
9821;SDS011;4950;46.042;14.472;2022-10-03T04:43:14;8.00;;;7.20;;
9821;SDS011;4950;46.042;14.472;2022-10-03T04:45:56;7.33;;;6.73;;
9821;SDS011;4950;46.042;14.472;2022-10-03T04:48:31;8.33;;;6.80;;
9821;SDS011;4950;46.042;14.472;2022-10-03T04:51:06;20.03;;;7.33;;
9821;SDS011;4950;46.042;14.472;2022-10-03T04:53:48;8.57;;;7.77;;
9821;SDS011;4950;46.042;14.472;2022-10-03T04:56:33;19.50;;;7.90;;
9821;SDS011;4950;46.042;14.472;2022-10-03T04:59:10;10.40;;;7.77;;
9821;SDS011;4950;46.042;14.472;2022-10-03T05:01:52;7.97;;;7.27;;
9821;SDS011;4950;46.042;14.472;2022-10-03T05:04:28;8.43;;;7.50;;
9821;SDS011;4950;46.042;14.472;2022-10-03T05:07:04;8.43;;;7.63;;
9821;SDS011;4950;46.042;14.472;2022-10-03T05:09:39;11.17;;;8.27;;
9821;SDS011;4950;46.042;14.472;2022-10-03T05:12:14;9.37;;;8.43;;
9821;SDS011;4950;46.042;14.472;2022-10-03T05:14:53;9.60;;;8.60;;
9821;SDS011;4950;46.042;14.472;2022-10-03T05:17:32;8.80;;;8.00;;
9821;SDS011;4950;46.042;14.472;2022-10-03T05:20:17;9.73;;;8.83;;
9821;SDS011;4950;46.042;14.472;2022-10-03T05:23:01;10.10;;;8.97;;
9821;SDS011;4950;46.042;14.472;2022-10-03T05:25:39;19.87;;;13.07;;
9821;SDS011;4950;46.042;14.472;2022-10-03T05:28:14;18.73;;;13.90;;
9821;SDS011;4950;46.042;14.472;2022-10-03T05:30:49;18.47;;;13.33;;
9821;SDS011;4950;46.042;14.472;2022-10-03T05:33:24;16.33;;;12.53;;
9821;SDS011;4950;46.042;14.472;2022-10-03T05:36:08;14.67;;;13.07;;
9821;SDS011;4950;46.042;14.472;2022-10-03T05:45:01;13.37;;;12.00;;
9821;SDS011;4950;46.042;14.472;2022-10-03T05:47:31;14.70;;;11.60;;
9821;SDS011;4950;46.042;14.472;2022-10-03T05:53:11;11.77;;;9.87;;
9821;SDS011;4950;46.042;14.472;2022-10-03T05:55:58;11.70;;;10.43;;
9821;SDS011;4950;46.042;14.472;2022-10-03T06:01:52;9.03;;;7.33;;
9821;SDS011;4950;46.042;14.472;2022-10-03T06:07:28;8.93;;;6.87;;
9821;SDS011;4950;46.042;14.472;2022-10-03T06:10:13;7.33;;;5.20;;
9821;SDS011;4950;46.042;14.472;2022-10-03T06:12:55;4.83;;;4.43;;
9821;SDS011;4950;46.042;14.472;2022-10-03T06:15:49;6.10;;;5.50;;
9821;SDS011;4950;46.042;14.472;2022-10-03T06:18:30;5.80;;;5.20;;
9821;SDS011;4950;46.042;14.472;2022-10-03T06:21:23;9.13;;;5.97;;
9821;SDS011;4950;46.042;14.472;2022-10-03T06:24:24;6.83;;;6.13;;
9821;SDS011;4950;46.042;14.472;2022-10-03T06:30:10;7.93;;;6.83;;
9821;SDS011;4950;46.042;14.472;2022-10-03T06:35:53;10.37;;;7.17;;
9821;SDS011;4950;46.042;14.472;2022-10-03T06:44:55;8.20;;;6.60;;
9821;SDS011;4950;46.042;14.472;2022-10-03T06:47:43;8.80;;;7.33;;
9821;SDS011;4950;46.042;14.472;2022-10-03T06:50:35;10.17;;;8.20;;
9821;SDS011;4950;46.042;14.472;2022-10-03T06:53:16;11.47;;;8.50;;
9821;SDS011;4950;46.042;14.472;2022-10-03T06:56:06;12.80;;;10.43;;
9821;SDS011;4950;46.042;14.472;2022-10-03T06:59:02;13.40;;;11.17;;
9821;SDS011;4950;46.042;14.472;2022-10-03T07:02:05;14.13;;;10.63;;
9821;SDS011;4950;46.042;14.472;2022-10-03T07:08:16;16.77;;;13.77;;
9821;SDS011;4950;46.042;14.472;2022-10-03T07:11:00;18.50;;;14.67;;
9821;SDS011;4950;46.042;14.472;2022-10-03T07:16:53;19.60;;;13.90;;
9821;SDS011;4950;46.042;14.472;2022-10-03T07:23:02;17.43;;;13.27;;
9821;SDS011;4950;46.042;14.472;2022-10-03T07:28:58;21.10;;;16.87;;
9821;SDS011;4950;46.042;14.472;2022-10-03T07:31:53;24.53;;;18.07;;
9821;SDS011;4950;46.042;14.472;2022-10-03T07:37:39;23.13;;;17.53;;
9821;SDS011;4950;46.042;14.472;2022-10-03T07:43:56;35.53;;;25.67;;
9821;SDS011;4950;46.042;14.472;2022-10-03T07:47:00;35.93;;;25.53;;
9821;SDS011;4950;46.042;14.472;2022-10-03T07:50:03;35.10;;;23.33;;
9821;SDS011;4950;46.042;14.472;2022-10-03T07:53:02;31.77;;;24.10;;
9821;SDS011;4950;46.042;14.472;2022-10-03T07:55:43;27.67;;;22.03;;
9821;SDS011;4950;46.042;14.472;2022-10-03T08:04:27;28.90;;;22.13;;
9821;SDS011;4950;46.042;14.472;2022-10-03T08:07:28;29.30;;;21.07;;
9821;SDS011;4950;46.042;14.472;2022-10-03T08:10:20;25.73;;;19.87;;
9821;SDS011;4950;46.042;14.472;2022-10-03T08:13:18;25.07;;;19.90;;
9821;SDS011;4950;46.042;14.472;2022-10-03T08:16:04;28.70;;;20.37;;
9821;SDS011;4950;46.042;14.472;2022-10-03T08:21:34;28.03;;;21.00;;
9821;SDS011;4950;46.042;14.472;2022-10-03T08:30:05;26.63;;;19.97;;
9821;SDS011;4950;46.042;14.472;2022-10-03T08:45:21;28.23;;;21.03;;
9821;SDS011;4950;46.042;14.472;2022-10-03T08:48:27;26.03;;;22.27;;
9821;SDS011;4950;46.042;14.472;2022-10-03T08:54:24;26.23;;;21.33;;
9821;SDS011;4950;46.042;14.472;2022-10-03T08:57:29;24.90;;;20.37;;
9821;SDS011;4950;46.042;14.472;2022-10-03T09:00:19;22.37;;;19.73;;
9821;SDS011;4950;46.042;14.472;2022-10-03T09:12:05;23.03;;;19.80;;
9821;SDS011;4950;46.042;14.472;2022-10-03T09:15:04;24.83;;;21.07;;
9821;SDS011;4950;46.042;14.472;2022-10-03T09:20:54;22.43;;;19.93;;
9821;SDS011;4950;46.042;14.472;2022-10-03T09:26:59;22.17;;;19.87;;
9821;SDS011;4950;46.042;14.472;2022-10-03T09:29:49;24.80;;;20.57;;
9821;SDS011;4950;46.042;14.472;2022-10-03T09:32:53;20.80;;;18.60;;
9821;SDS011;4950;46.042;14.472;2022-10-03T09:35:49;20.77;;;18.67;;
9821;SDS011;4950;46.042;14.472;2022-10-03T09:41:35;20.73;;;18.27;;
9821;SDS011;4950;46.042;14.472;2022-10-03T09:47:14;19.53;;;17.63;;
9821;SDS011;4950;46.042;14.472;2022-10-03T09:50:04;18.40;;;16.60;;
9821;SDS011;4950;46.042;14.472;2022-10-03T09:53:00;19.40;;;16.83;;
9821;SDS011;4950;46.042;14.472;2022-10-03T09:55:52;18.03;;;16.13;;
9821;SDS011;4950;46.042;14.472;2022-10-03T09:58:41;16.03;;;14.53;;
9821;SDS011;4950;46.042;14.472;2022-10-03T10:01:31;18.27;;;16.13;;
9821;SDS011;4950;46.042;14.472;2022-10-03T10:04:15;17.57;;;15.77;;
9821;SDS011;4950;46.042;14.472;2022-10-03T10:07:16;20.37;;;16.17;;
9821;SDS011;4950;46.042;14.472;2022-10-03T10:10:09;15.83;;;14.23;;
9821;SDS011;4950;46.042;14.472;2022-10-03T10:13:08;16.20;;;13.47;;
9821;SDS011;4950;46.042;14.472;2022-10-03T10:15:47;15.17;;;12.87;;
9821;SDS011;4950;46.042;14.472;2022-10-03T10:21:53;13.10;;;11.70;;
9821;SDS011;4950;46.042;14.472;2022-10-03T10:24:40;14.17;;;11.60;;
9821;SDS011;4950;46.042;14.472;2022-10-03T10:27:42;12.13;;;10.90;;
9821;SDS011;4950;46.042;14.472;2022-10-03T10:30:47;9.63;;;8.68;;
9821;SDS011;4950;46.042;14.472;2022-10-03T10:40:20;12.52;;;9.02;;
9821;SDS011;4950;46.042;14.472;2022-10-03T10:46:21;7.88;;;7.18;;
9821;SDS011;4950;46.042;14.472;2022-10-03T10:49:12;9.02;;;6.43;;
9821;SDS011;4950;46.042;14.472;2022-10-03T10:52:17;6.78;;;6.00;;
9821;SDS011;4950;46.042;14.472;2022-10-03T10:55:14;10.13;;;6.47;;
9821;SDS011;4950;46.042;14.472;2022-10-03T11:01:05;4.32;;;3.20;;
9821;SDS011;4950;46.042;14.472;2022-10-03T11:38:21;5.57;;;2.28;;
9821;SDS011;4950;46.042;14.472;2022-10-03T11:40:55;3.92;;;2.15;;
9821;SDS011;4950;46.042;14.472;2022-10-03T11:43:37;2.88;;;1.90;;
9821;SDS011;4950;46.042;14.472;2022-10-03T11:46:21;2.78;;;1.80;;
9821;SDS011;4950;46.042;14.472;2022-10-03T11:49:03;2.33;;;1.70;;
9821;SDS011;4950;46.042;14.472;2022-10-03T11:51:40;3.33;;;1.80;;
9821;SDS011;4950;46.042;14.472;2022-10-03T11:54:15;3.15;;;1.88;;
9821;SDS011;4950;46.042;14.472;2022-10-03T11:56:48;3.92;;;2.20;;
9821;SDS011;4950;46.042;14.472;2022-10-03T11:59:29;2.20;;;1.80;;
9821;SDS011;4950;46.042;14.472;2022-10-03T12:02:13;3.38;;;1.65;;
9821;SDS011;4950;46.042;14.472;2022-10-03T12:04:52;3.25;;;1.70;;
9821;SDS011;4950;46.042;14.472;2022-10-03T12:07:38;2.17;;;1.55;;
9821;SDS011;4950;46.042;14.472;2022-10-03T12:10:35;2.45;;;1.40;;
9821;SDS011;4950;46.042;14.472;2022-10-03T12:13:11;2.40;;;1.52;;
9821;SDS011;4950;46.042;14.472;2022-10-03T12:15:42;1.40;;;1.30;;
9821;SDS011;4950;46.042;14.472;2022-10-03T12:18:13;2.85;;;1.67;;
9821;SDS011;4950;46.042;14.472;2022-10-03T12:20:54;2.42;;;1.33;;
9821;SDS011;4950;46.042;14.472;2022-10-03T12:23:31;2.03;;;1.30;;
9821;SDS011;4950;46.042;14.472;2022-10-03T12:26:13;1.67;;;1.40;;
9821;SDS011;4950;46.042;14.472;2022-10-03T12:28:48;1.13;;;1.00;;
9821;SDS011;4950;46.042;14.472;2022-10-03T12:31:20;3.08;;;1.00;;
9821;SDS011;4950;46.042;14.472;2022-10-03T12:33:53;1.60;;;1.10;;
9821;SDS011;4950;46.042;14.472;2022-10-03T12:36:26;2.67;;;1.30;;
9821;SDS011;4950;46.042;14.472;2022-10-03T12:39:03;1.50;;;1.40;;
9821;SDS011;4950;46.042;14.472;2022-10-03T12:41:45;1.50;;;1.30;;
9821;SDS011;4950;46.042;14.472;2022-10-03T12:44:25;1.80;;;1.40;;
9821;SDS011;4950;46.042;14.472;2022-10-03T12:47:05;2.53;;;1.40;;
9821;SDS011;4950;46.042;14.472;2022-10-03T12:49:49;2.30;;;1.30;;
9821;SDS011;4950;46.042;14.472;2022-10-03T12:52:24;1.75;;;1.08;;
9821;SDS011;4950;46.042;14.472;2022-10-03T12:55:06;2.03;;;1.20;;
9821;SDS011;4950;46.042;14.472;2022-10-03T12:57:49;1.38;;;1.27;;
9821;SDS011;4950;46.042;14.472;2022-10-03T13:00:21;1.33;;;1.20;;
9821;SDS011;4950;46.042;14.472;2022-10-03T13:06:04;2.17;;;1.02;;
9821;SDS011;4950;46.042;14.472;2022-10-03T13:08:52;2.55;;;1.23;;
9821;SDS011;4950;46.042;14.472;2022-10-03T13:11:35;4.05;;;1.60;;
9821;SDS011;4950;46.042;14.472;2022-10-03T13:14:21;2.10;;;1.17;;
9821;SDS011;4950;46.042;14.472;2022-10-03T13:16:58;1.33;;;1.05;;
9821;SDS011;4950;46.042;14.472;2022-10-03T13:19:38;1.85;;;1.40;;
9821;SDS011;4950;46.042;14.472;2022-10-03T13:22:20;2.58;;;1.10;;
9821;SDS011;4950;46.042;14.472;2022-10-03T13:25:00;1.23;;;1.10;;
9821;SDS011;4950;46.042;14.472;2022-10-03T13:27:32;2.35;;;1.20;;
9821;SDS011;4950;46.042;14.472;2022-10-03T13:30:11;1.38;;;1.05;;
9821;SDS011;4950;46.042;14.472;2022-10-03T13:32:44;3.00;;;1.90;;
9821;SDS011;4950;46.042;14.472;2022-10-03T13:35:16;4.30;;;1.85;;
9821;SDS011;4950;46.042;14.472;2022-10-03T13:38:11;1.60;;;1.35;;
9821;SDS011;4950;46.042;14.472;2022-10-03T13:40:50;2.20;;;1.30;;
9821;SDS011;4950;46.042;14.472;2022-10-03T13:43:24;3.72;;;1.15;;
9821;SDS011;4950;46.042;14.472;2022-10-03T13:46:00;2.13;;;1.30;;
9821;SDS011;4950;46.042;14.472;2022-10-03T13:48:32;2.45;;;1.45;;
9821;SDS011;4950;46.042;14.472;2022-10-03T13:51:01;1.90;;;1.20;;
9821;SDS011;4950;46.042;14.472;2022-10-03T13:53:38;1.60;;;1.50;;
9821;SDS011;4950;46.042;14.472;2022-10-03T13:56:18;1.83;;;1.00;;
9821;SDS011;4950;46.042;14.472;2022-10-03T13:58:58;1.98;;;1.00;;
9821;SDS011;4950;46.042;14.472;2022-10-03T14:01:40;2.63;;;1.13;;
9821;SDS011;4950;46.042;14.472;2022-10-03T14:07:14;1.27;;;0.93;;
9821;SDS011;4950;46.042;14.472;2022-10-03T14:09:58;1.80;;;1.33;;
9821;SDS011;4950;46.042;14.472;2022-10-03T14:12:50;1.70;;;1.10;;
9821;SDS011;4950;46.042;14.472;2022-10-03T14:18:17;1.33;;;1.17;;
9821;SDS011;4950;46.042;14.472;2022-10-03T14:23:58;1.75;;;0.90;;
9821;SDS011;4950;46.042;14.472;2022-10-03T14:26:32;1.75;;;1.13;;
9821;SDS011;4950;46.042;14.472;2022-10-03T14:29:07;2.85;;;1.13;;
9821;SDS011;4950;46.042;14.472;2022-10-03T14:31:44;1.00;;;0.90;;
9821;SDS011;4950;46.042;14.472;2022-10-03T14:34:21;1.83;;;1.10;;
9821;SDS011;4950;46.042;14.472;2022-10-03T14:37:02;1.60;;;1.10;;
9821;SDS011;4950;46.042;14.472;2022-10-03T14:39:39;3.40;;;1.10;;
9821;SDS011;4950;46.042;14.472;2022-10-03T14:42:21;2.72;;;1.10;;
9821;SDS011;4950;46.042;14.472;2022-10-03T14:45:00;1.63;;;1.15;;
9821;SDS011;4950;46.042;14.472;2022-10-03T14:47:32;3.33;;;1.33;;
9821;SDS011;4950;46.042;14.472;2022-10-03T14:50:02;4.20;;;1.20;;
9821;SDS011;4950;46.042;14.472;2022-10-03T14:52:32;1.20;;;0.90;;
9821;SDS011;4950;46.042;14.472;2022-10-03T14:55:11;1.25;;;0.80;;
9821;SDS011;4950;46.042;14.472;2022-10-03T14:57:43;3.00;;;1.30;;
9821;SDS011;4950;46.042;14.472;2022-10-03T15:00:23;2.65;;;1.20;;
9821;SDS011;4950;46.042;14.472;2022-10-03T15:02:53;2.33;;;1.10;;
9821;SDS011;4950;46.042;14.472;2022-10-03T15:05:21;2.08;;;1.00;;
9821;SDS011;4950;46.042;14.472;2022-10-03T15:08:12;1.95;;;0.98;;
9821;SDS011;4950;46.042;14.472;2022-10-03T15:10:41;1.40;;;1.05;;
9821;SDS011;4950;46.042;14.472;2022-10-03T15:13:10;1.60;;;1.30;;
9821;SDS011;4950;46.042;14.472;2022-10-03T15:15:42;2.45;;;1.15;;
9821;SDS011;4950;46.042;14.472;2022-10-03T15:18:12;1.70;;;1.10;;
9821;SDS011;4950;46.042;14.472;2022-10-03T15:20:41;1.63;;;1.02;;
9821;SDS011;4950;46.042;14.472;2022-10-03T15:23:17;1.17;;;1.00;;
9821;SDS011;4950;46.042;14.472;2022-10-03T15:25:46;2.20;;;1.20;;
9821;SDS011;4950;46.042;14.472;2022-10-03T15:28:18;4.15;;;1.02;;
9821;SDS011;4950;46.042;14.472;2022-10-03T15:30:48;1.27;;;1.00;;
9821;SDS011;4950;46.042;14.472;2022-10-03T15:33:20;1.52;;;0.90;;
9821;SDS011;4950;46.042;14.472;2022-10-03T15:35:58;2.22;;;1.08;;
9821;SDS011;4950;46.042;14.472;2022-10-03T15:38:32;1.75;;;1.00;;
9821;SDS011;4950;46.042;14.472;2022-10-03T15:41:05;1.90;;;1.10;;
9821;SDS011;4950;46.042;14.472;2022-10-03T15:43:35;1.55;;;1.10;;
9821;SDS011;4950;46.042;14.472;2022-10-03T15:46:13;2.10;;;1.08;;
9821;SDS011;4950;46.042;14.472;2022-10-03T15:48:49;0.80;;;0.80;;
9821;SDS011;4950;46.042;14.472;2022-10-03T15:51:18;2.17;;;1.25;;
9821;SDS011;4950;46.042;14.472;2022-10-03T15:53:50;1.92;;;1.30;;
9821;SDS011;4950;46.042;14.472;2022-10-03T15:56:22;1.25;;;1.00;;
9821;SDS011;4950;46.042;14.472;2022-10-03T15:58:54;2.65;;;1.00;;
9821;SDS011;4950;46.042;14.472;2022-10-03T16:01:27;2.97;;;1.33;;
9821;SDS011;4950;46.042;14.472;2022-10-03T16:03:59;1.83;;;1.35;;
9821;SDS011;4950;46.042;14.472;2022-10-03T16:06:29;1.42;;;1.20;;
9821;SDS011;4950;46.042;14.472;2022-10-03T16:09:05;2.40;;;1.30;;
9821;SDS011;4950;46.042;14.472;2022-10-03T16:11:39;2.65;;;0.90;;
9821;SDS011;4950;46.042;14.472;2022-10-03T16:14:15;1.52;;;1.20;;
9821;SDS011;4950;46.042;14.472;2022-10-03T16:16:48;1.73;;;1.30;;
9821;SDS011;4950;46.042;14.472;2022-10-03T16:19:30;1.73;;;1.30;;
9821;SDS011;4950;46.042;14.472;2022-10-03T16:22:11;2.38;;;1.20;;
9821;SDS011;4950;46.042;14.472;2022-10-03T16:24:44;2.65;;;1.80;;
9821;SDS011;4950;46.042;14.472;2022-10-03T16:27:15;2.47;;;1.70;;
9821;SDS011;4950;46.042;14.472;2022-10-03T16:29:51;3.15;;;1.60;;
9821;SDS011;4950;46.042;14.472;2022-10-03T16:32:42;1.92;;;1.70;;
9821;SDS011;4950;46.042;14.472;2022-10-03T16:35:20;2.15;;;1.60;;
9821;SDS011;4950;46.042;14.472;2022-10-03T16:37:54;2.20;;;1.42;;
9821;SDS011;4950;46.042;14.472;2022-10-03T16:40:21;1.77;;;1.67;;
9821;SDS011;4950;46.042;14.472;2022-10-03T16:42:51;2.97;;;1.80;;
9821;SDS011;4950;46.042;14.472;2022-10-03T16:45:23;4.28;;;1.80;;
9821;SDS011;4950;46.042;14.472;2022-10-03T16:47:55;2.95;;;2.00;;
9821;SDS011;4950;46.042;14.472;2022-10-03T16:50:42;3.42;;;2.40;;
9821;SDS011;4950;46.042;14.472;2022-10-03T16:53:14;6.13;;;3.25;;
9821;SDS011;4950;46.042;14.472;2022-10-03T16:55:43;3.80;;;2.92;;
9821;SDS011;4950;46.042;14.472;2022-10-03T16:58:15;5.07;;;3.00;;
9821;SDS011;4950;46.042;14.472;2022-10-03T17:00:49;6.13;;;2.90;;
9821;SDS011;4950;46.042;14.472;2022-10-03T17:03:23;4.45;;;3.30;;
9821;SDS011;4950;46.042;14.472;2022-10-03T17:05:52;5.45;;;3.25;;
9821;SDS011;4950;46.042;14.472;2022-10-03T17:08:25;5.90;;;4.15;;
9821;SDS011;4950;46.042;14.472;2022-10-03T17:10:57;16.27;;;14.38;;
9821;SDS011;4950;46.042;14.472;2022-10-03T17:13:27;7.47;;;6.63;;
9821;SDS011;4950;46.042;14.472;2022-10-03T17:15:59;6.35;;;4.20;;
9821;SDS011;4950;46.042;14.472;2022-10-03T17:18:32;7.20;;;3.67;;
9821;SDS011;4950;46.042;14.472;2022-10-03T17:21:12;5.60;;;4.15;;
9821;SDS011;4950;46.042;14.472;2022-10-03T17:23:47;5.15;;;3.65;;
9821;SDS011;4950;46.042;14.472;2022-10-03T17:26:25;8.30;;;4.35;;
9821;SDS011;4950;46.042;14.472;2022-10-03T17:28:59;4.90;;;3.60;;
9821;SDS011;4950;46.042;14.472;2022-10-03T17:31:35;7.55;;;3.33;;
9821;SDS011;4950;46.042;14.472;2022-10-03T17:34:10;7.30;;;3.55;;
9821;SDS011;4950;46.042;14.472;2022-10-03T17:39:52;7.10;;;4.10;;
9821;SDS011;4950;46.042;14.472;2022-10-03T17:42:26;8.95;;;4.00;;
9821;SDS011;4950;46.042;14.472;2022-10-03T17:45:04;8.90;;;5.45;;
9821;SDS011;4950;46.042;14.472;2022-10-03T17:47:46;7.85;;;5.15;;
9821;SDS011;4950;46.042;14.472;2022-10-03T17:50:21;8.75;;;5.10;;
9821;SDS011;4950;46.042;14.472;2022-10-03T17:52:54;9.77;;;5.95;;
9821;SDS011;4950;46.042;14.472;2022-10-03T17:55:24;7.55;;;5.72;;
9821;SDS011;4950;46.042;14.472;2022-10-03T17:57:56;7.22;;;5.22;;
9821;SDS011;4950;46.042;14.472;2022-10-03T18:00:26;7.40;;;5.47;;
9821;SDS011;4950;46.042;14.472;2022-10-03T18:02:59;7.38;;;5.38;;
9821;SDS011;4950;46.042;14.472;2022-10-03T18:05:32;7.93;;;5.00;;
9821;SDS011;4950;46.042;14.472;2022-10-03T18:08:03;9.05;;;5.47;;
9821;SDS011;4950;46.042;14.472;2022-10-03T18:10:35;7.53;;;5.10;;
9821;SDS011;4950;46.042;14.472;2022-10-03T18:13:06;9.30;;;4.90;;
9821;SDS011;4950;46.042;14.472;2022-10-03T18:15:57;6.32;;;5.50;;
9821;SDS011;4950;46.042;14.472;2022-10-03T18:18:57;13.27;;;5.65;;
9821;SDS011;4950;46.042;14.472;2022-10-03T18:21:36;8.10;;;4.70;;
9821;SDS011;4950;46.042;14.472;2022-10-03T18:24:22;9.13;;;4.68;;
9821;SDS011;4950;46.042;14.472;2022-10-03T18:27:17;6.53;;;5.00;;
9821;SDS011;4950;46.042;14.472;2022-10-03T18:30:12;5.38;;;4.32;;
9821;SDS011;4950;46.042;14.472;2022-10-03T18:32:41;6.70;;;4.80;;
9821;SDS011;4950;46.042;14.472;2022-10-03T18:35:11;8.27;;;4.40;;
9821;SDS011;4950;46.042;14.472;2022-10-03T18:40:39;9.45;;;3.80;;
9821;SDS011;4950;46.042;14.472;2022-10-03T18:43:19;8.85;;;3.90;;
9821;SDS011;4950;46.042;14.472;2022-10-03T18:45:51;4.32;;;3.25;;
9821;SDS011;4950;46.042;14.472;2022-10-03T18:48:25;5.93;;;3.60;;
9821;SDS011;4950;46.042;14.472;2022-10-03T18:51:00;5.65;;;4.35;;
9821;SDS011;4950;46.042;14.472;2022-10-03T18:53:38;5.43;;;4.20;;
9821;SDS011;4950;46.042;14.472;2022-10-03T18:56:11;5.15;;;4.35;;
9821;SDS011;4950;46.042;14.472;2022-10-03T18:58:44;7.35;;;4.63;;
9821;SDS011;4950;46.042;14.472;2022-10-03T19:01:14;5.60;;;4.10;;
9821;SDS011;4950;46.042;14.472;2022-10-03T19:03:45;6.40;;;4.95;;
9821;SDS011;4950;46.042;14.472;2022-10-03T19:06:17;7.13;;;4.35;;
9821;SDS011;4950;46.042;14.472;2022-10-03T19:08:49;5.67;;;4.30;;
9821;SDS011;4950;46.042;14.472;2022-10-03T19:11:19;6.35;;;4.50;;
9821;SDS011;4950;46.042;14.472;2022-10-03T19:13:53;7.78;;;5.13;;
9821;SDS011;4950;46.042;14.472;2022-10-03T19:19:14;7.60;;;4.88;;
9821;SDS011;4950;46.042;14.472;2022-10-03T19:21:50;6.80;;;4.38;;
9821;SDS011;4950;46.042;14.472;2022-10-03T19:24:19;6.10;;;4.57;;
9821;SDS011;4950;46.042;14.472;2022-10-03T19:26:50;8.20;;;4.68;;
9821;SDS011;4950;46.042;14.472;2022-10-03T19:29:21;5.63;;;4.50;;
9821;SDS011;4950;46.042;14.472;2022-10-03T19:31:51;6.00;;;4.43;;
9821;SDS011;4950;46.042;14.472;2022-10-03T19:34:27;6.30;;;4.50;;
9821;SDS011;4950;46.042;14.472;2022-10-03T19:36:59;7.53;;;4.93;;
9821;SDS011;4950;46.042;14.472;2022-10-03T19:39:28;6.33;;;5.00;;
9821;SDS011;4950;46.042;14.472;2022-10-03T19:41:59;10.85;;;4.88;;